createdAt,value
2019-05-20T00:01:19.053Z,8.97
2019-05-20T00:04:32.555Z,8.10
2019-05-20T00:07:46.527Z,7.03
2019-05-20T00:11:00.351Z,6.60
2019-05-20T00:14:13.928Z,9.87
2019-05-20T00:17:27.679Z,5.70
2019-05-20T00:20:41.195Z,6.90
2019-05-20T00:23:54.667Z,6.73
2019-05-20T00:27:08.159Z,6.47
2019-05-20T00:30:21.751Z,7.70
2019-05-20T00:33:35.214Z,6.20
2019-05-20T00:36:48.915Z,7.40
2019-05-20T00:40:03.053Z,6.43
2019-05-20T00:43:16.822Z,6.47
2019-05-20T00:46:30.378Z,5.43
2019-05-20T00:49:43.861Z,9.90
2019-05-20T00:52:57.581Z,7.73
2019-05-20T00:56:11.060Z,6.17
2019-05-20T00:59:24.527Z,6.07
2019-05-20T01:02:38.135Z,7.17
2019-05-20T01:05:51.867Z,8.03
2019-05-20T01:09:07.091Z,7.60
2019-05-20T01:12:20.620Z,7.27
2019-05-20T01:15:34.219Z,6.83
2019-05-20T01:18:47.734Z,7.13
2019-05-20T01:22:01.605Z,6.43
2019-05-20T01:25:15.310Z,6.97
2019-05-20T01:28:28.941Z,6.00
2019-05-20T01:31:42.453Z,9.80
2019-05-20T01:34:55.946Z,7.00
2019-05-20T01:38:09.531Z,7.07
2019-05-20T01:41:23.250Z,7.57
2019-05-20T01:44:36.850Z,7.83
2019-05-20T01:47:50.350Z,7.80
2019-05-20T01:51:03.850Z,11.00
2019-05-20T01:54:17.445Z,8.57
2019-05-20T01:57:30.972Z,8.37
2019-05-20T02:00:44.980Z,6.73
2019-05-20T02:03:58.559Z,7.37
2019-05-20T02:07:12.621Z,8.20
2019-05-20T02:10:26.129Z,7.50
2019-05-20T02:13:51.640Z,8.17
2019-05-20T02:17:05.265Z,9.17
2019-05-20T02:20:18.867Z,8.07
2019-05-20T02:23:32.483Z,7.63
2019-05-20T02:26:45.983Z,11.80
2019-05-20T02:29:59.786Z,8.40
2019-05-20T02:33:13.477Z,8.73
2019-05-20T02:36:27.177Z,8.10
2019-05-20T02:39:41.037Z,8.17
2019-05-20T02:42:54.792Z,7.93
2019-05-20T02:46:08.492Z,8.60
2019-05-20T02:49:22.014Z,8.20
2019-05-20T02:52:35.521Z,9.67
2019-05-20T02:55:49.316Z,8.53
2019-05-20T02:59:03.422Z,10.43
2019-05-20T03:02:17.257Z,7.60
2019-05-20T03:05:30.750Z,8.57
2019-05-20T03:08:44.720Z,14.80
2019-05-20T03:11:58.348Z,8.07
2019-05-20T03:15:12.374Z,8.90
2019-05-20T03:18:26.143Z,8.10
2019-05-20T03:21:39.971Z,11.23
2019-05-20T03:24:53.562Z,9.27
2019-05-20T03:28:07.569Z,9.87
2019-05-20T03:31:21.241Z,8.43
2019-05-20T03:34:50.638Z,8.77
2019-05-20T03:37:50.271Z,7.93
2019-05-20T03:41:03.853Z,8.63
2019-05-20T03:44:17.456Z,8.03
2019-05-20T03:47:31.230Z,8.17
2019-05-20T03:50:44.836Z,9.27
2019-05-20T03:53:58.764Z,9.83
2019-05-20T03:57:12.482Z,10.20
2019-05-20T04:00:41.885Z,7.93
2019-05-20T04:03:55.635Z,7.63
2019-05-20T04:07:09.327Z,9.23
2019-05-20T04:10:22.945Z,7.17
2019-05-20T04:13:36.559Z,8.17
2019-05-20T04:16:51.182Z,11.30
2019-05-20T04:20:04.902Z,10.83
2019-05-20T04:23:18.894Z,7.97
2019-05-20T04:26:32.388Z,8.23
2019-05-20T04:29:45.949Z,9.13
2019-05-20T04:32:59.892Z,8.07
2019-05-20T04:36:13.478Z,9.60
2019-05-20T04:39:27.204Z,10.27
2019-05-20T04:42:41.092Z,8.37
2019-05-20T04:45:55.839Z,10.00
2019-05-20T04:49:09.471Z,8.50
2019-05-20T04:52:23.109Z,8.93
2019-05-20T04:55:36.631Z,10.27
2019-05-20T04:58:50.127Z,10.67
2019-05-20T05:02:03.748Z,11.20
2019-05-20T05:05:17.228Z,11.67
2019-05-20T05:08:30.820Z,16.20
2019-05-20T05:11:44.841Z,21.87
2019-05-20T05:16:38.536Z,17.73
2019-05-20T05:19:52.057Z,18.37
2019-05-20T05:23:06.180Z,17.07
2019-05-20T05:26:19.931Z,16.70
2019-05-20T05:29:33.563Z,24.03
2019-05-20T05:32:47.133Z,31.97
2019-05-20T05:36:01.046Z,33.53
2019-05-20T05:39:15.061Z,31.23
2019-05-20T05:42:28.685Z,30.23
2019-05-20T05:45:42.195Z,34.50
2019-05-20T05:48:55.789Z,34.30
2019-05-20T05:52:10.054Z,38.80
2019-05-20T05:55:23.752Z,42.07
2019-05-20T05:58:37.909Z,40.23
2019-05-20T06:01:51.555Z,35.03
2019-05-20T06:05:05.199Z,42.77
2019-05-20T06:08:19.101Z,39.67
2019-05-20T06:11:32.902Z,41.43
2019-05-20T06:14:46.775Z,40.83
2019-05-20T06:18:00.473Z,42.87
2019-05-20T06:21:14.516Z,41.60
2019-05-20T06:24:28.278Z,43.20
2019-05-20T06:27:42.051Z,44.87
2019-05-20T06:30:55.814Z,42.47
2019-05-20T06:34:09.469Z,44.97
2019-05-20T06:37:25.277Z,43.40
2019-05-20T06:40:39.010Z,43.87
2019-05-20T06:43:52.686Z,43.13
2019-05-20T06:47:06.323Z,41.40
2019-05-20T06:50:20.145Z,43.00
2019-05-20T06:53:34.007Z,42.30
2019-05-20T06:56:47.703Z,41.23
2019-05-20T07:00:01.551Z,41.93
2019-05-20T07:03:15.166Z,38.90
2019-05-20T07:06:44.725Z,43.73
2019-05-20T07:09:44.613Z,44.23
2019-05-20T07:12:58.107Z,42.67
2019-05-20T07:16:11.660Z,47.10
2019-05-20T07:19:25.330Z,42.90
2019-05-20T07:22:54.573Z,43.93
2019-05-20T07:25:54.650Z,43.53
2019-05-20T07:29:08.149Z,46.73
2019-05-20T07:32:21.768Z,41.37
2019-05-20T07:35:35.300Z,42.27
2019-05-20T07:38:48.937Z,42.77
2019-05-20T07:42:02.658Z,45.63
2019-05-20T07:45:16.353Z,45.37
2019-05-20T07:48:30.429Z,44.13
2019-05-20T07:51:44.722Z,44.97
2019-05-20T07:54:59.893Z,47.23
2019-05-20T07:58:15.497Z,48.17
2019-05-20T08:01:29.555Z,47.10
2019-05-20T08:04:43.399Z,47.73
2019-05-20T08:07:57.127Z,49.53
2019-05-20T08:11:11.312Z,50.00
2019-05-20T08:14:24.911Z,52.97
2019-05-20T08:17:38.674Z,51.70
2019-05-20T08:20:52.965Z,54.80
2019-05-20T08:24:06.695Z,52.93
2019-05-20T08:27:20.475Z,50.57
2019-05-20T08:30:35.497Z,49.77
2019-05-20T08:33:49.420Z,53.87
2019-05-20T08:37:03.149Z,54.27
2019-05-20T08:40:18.059Z,49.77
2019-05-20T08:43:31.614Z,53.07
2019-05-20T08:46:45.350Z,51.17
2019-05-20T08:49:58.917Z,48.83
2019-05-20T08:53:12.621Z,56.50
2019-05-20T08:56:26.316Z,53.27
2019-05-20T08:59:39.761Z,50.07
2019-05-20T09:02:53.599Z,52.77
2019-05-20T09:06:07.429Z,50.70
2019-05-20T09:09:21.198Z,49.03
2019-05-20T09:12:35.322Z,49.00
2019-05-20T09:15:49.097Z,50.00
2019-05-20T09:19:02.828Z,47.23
2019-05-20T09:22:16.659Z,48.97
2019-05-20T09:25:31.404Z,46.93
2019-05-20T09:28:45.061Z,50.20
2019-05-20T09:31:59.135Z,49.10
2019-05-20T09:35:12.889Z,50.90
2019-05-20T09:38:26.423Z,48.23
2019-05-20T09:41:40.820Z,44.83
2019-05-20T09:44:54.511Z,46.33
2019-05-20T09:48:09.675Z,43.80
2019-05-20T09:51:23.527Z,42.80
2019-05-20T09:54:37.370Z,45.60
2019-05-20T09:57:50.866Z,42.67
2019-05-20T10:01:04.697Z,41.67
2019-05-20T10:04:18.415Z,43.00
2019-05-20T10:07:31.953Z,39.53
2019-05-20T10:10:45.891Z,36.73
2019-05-20T10:13:59.429Z,33.97
2019-05-20T10:17:13.030Z,35.00
2019-05-20T10:20:26.820Z,31.07
2019-05-20T10:23:40.368Z,30.07
2019-05-20T10:26:53.858Z,28.17
2019-05-20T10:30:07.688Z,25.67
2019-05-20T10:33:21.374Z,25.27
2019-05-20T10:36:35.189Z,25.33
2019-05-20T10:39:48.929Z,25.80
2019-05-20T10:43:02.627Z,23.13
2019-05-20T10:46:16.308Z,22.27
2019-05-20T10:49:30.027Z,20.73
2019-05-20T10:52:43.664Z,18.87
2019-05-20T10:55:57.636Z,17.93
2019-05-20T10:59:12.416Z,19.87
2019-05-20T11:02:30.991Z,17.27
2019-05-20T11:05:42.431Z,20.33
2019-05-20T11:08:56.474Z,18.20
2019-05-20T11:12:10.009Z,19.37
2019-05-20T11:15:23.768Z,20.10
2019-05-20T11:18:37.280Z,14.33
2019-05-20T11:21:51.121Z,14.40
2019-05-20T11:25:04.977Z,12.33
2019-05-20T11:28:19.211Z,14.27
2019-05-20T11:31:33.023Z,12.07
2019-05-20T11:34:46.717Z,14.47
2019-05-20T11:38:00.566Z,14.53
2019-05-20T11:41:14.307Z,14.73
2019-05-20T11:44:28.086Z,16.50
2019-05-20T11:47:41.790Z,15.43
2019-05-20T11:50:55.386Z,13.93
2019-05-20T11:54:09.166Z,14.80
2019-05-20T11:57:22.815Z,17.77
2019-05-20T12:00:40.492Z,14.63
2019-05-20T12:03:54.064Z,16.47
2019-05-20T12:07:08.640Z,15.90
2019-05-20T12:10:22.611Z,19.17
2019-05-20T12:16:37.771Z,16.13
2019-05-20T12:19:51.628Z,15.67
2019-05-20T12:23:05.273Z,17.43
2019-05-20T12:26:22.458Z,18.63
2019-05-20T12:29:34.792Z,17.83
2019-05-20T12:32:48.482Z,18.07
2019-05-20T12:36:02.837Z,19.20
2019-05-20T12:39:16.559Z,17.57
2019-05-20T12:42:30.491Z,18.87
2019-05-20T12:45:44.252Z,17.27
2019-05-20T12:48:57.962Z,18.77
2019-05-20T12:52:11.658Z,16.87
2019-05-20T12:55:25.457Z,18.97
2019-05-20T12:58:39.284Z,17.23
2019-05-20T13:01:53.086Z,16.57
2019-05-20T13:05:06.969Z,18.63
2019-05-20T13:08:20.937Z,17.67
2019-05-20T13:11:34.744Z,16.97
2019-05-20T13:14:48.547Z,16.70
2019-05-20T13:18:02.335Z,15.80
2019-05-20T13:21:16.078Z,15.43
2019-05-20T13:24:29.758Z,15.53
2019-05-20T13:27:43.608Z,14.80
2019-05-20T13:30:57.238Z,13.73
2019-05-20T13:34:10.854Z,13.57
2019-05-20T13:37:24.359Z,13.50
2019-05-20T13:40:46.448Z,14.40
2019-05-20T13:43:53.424Z,13.83
2019-05-20T13:47:07.146Z,14.23
2019-05-20T13:50:20.986Z,14.47
2019-05-20T13:53:34.996Z,15.13
2019-05-20T13:56:48.932Z,15.93
2019-05-20T14:00:02.956Z,17.07
2019-05-20T14:03:16.671Z,16.57
2019-05-20T14:06:30.290Z,17.40
2019-05-20T14:09:43.894Z,16.60
2019-05-20T14:12:57.578Z,15.67
2019-05-20T14:16:11.401Z,15.43
2019-05-20T14:19:25.219Z,18.40
2019-05-20T14:22:38.879Z,17.87
2019-05-20T14:25:52.667Z,18.40
2019-05-20T14:29:06.500Z,15.87
2019-05-20T14:32:20.173Z,19.37
2019-05-20T14:35:34.356Z,20.30
2019-05-20T14:38:48.097Z,19.87
2019-05-20T14:42:01.872Z,20.40
2019-05-20T14:45:16.123Z,20.60
2019-05-20T14:48:29.917Z,20.93
2019-05-20T14:51:43.699Z,25.03
2019-05-20T14:54:57.372Z,23.43
2019-05-20T14:58:11.347Z,24.77
2019-05-20T15:01:25.187Z,24.23
2019-05-20T15:04:38.793Z,24.33
2019-05-20T15:07:52.473Z,26.17
2019-05-20T15:11:06.150Z,25.83
2019-05-20T15:14:19.910Z,28.50
2019-05-20T15:17:33.677Z,29.80
2019-05-20T15:20:47.833Z,99.37
2019-05-20T15:24:02.025Z,51.63
2019-05-20T15:27:15.800Z,52.87
2019-05-20T15:30:29.574Z,39.73
2019-05-20T15:33:43.327Z,42.37
2019-05-20T15:36:56.980Z,34.40
2019-05-20T15:40:11.132Z,44.23
2019-05-20T15:43:25.397Z,39.87
2019-05-20T15:46:39.043Z,40.30
2019-05-20T15:49:52.728Z,39.13
2019-05-20T15:53:11.060Z,36.67
2019-05-20T15:56:22.022Z,39.27
2019-05-20T15:59:45.368Z,40.90
2019-05-20T16:02:51.366Z,49.33
2019-05-20T16:06:05.343Z,43.87
2019-05-20T16:09:19.111Z,41.47
2019-05-20T16:12:34.400Z,47.67
2019-05-20T16:15:48.093Z,45.40
2019-05-20T16:19:01.722Z,47.10
2019-05-20T16:22:15.466Z,50.20
2019-05-20T16:25:29.226Z,118.70
2019-05-20T16:28:42.762Z,59.73
2019-05-20T16:31:56.738Z,126.37
2019-05-20T16:35:10.572Z,53.77
2019-05-20T16:38:24.305Z,75.77
2019-05-20T16:41:38.024Z,114.27
2019-05-20T16:44:51.598Z,55.60
2019-05-20T16:48:05.297Z,57.70
2019-05-20T16:51:22.080Z,131.33
2019-05-20T16:54:34.666Z,78.40
2019-05-20T16:57:48.290Z,57.47
2019-05-20T17:01:02.004Z,65.40
2019-05-20T17:04:15.703Z,82.93
2019-05-20T17:07:29.357Z,83.33
2019-05-20T17:10:43.383Z,56.03
2019-05-20T17:13:56.911Z,82.70
2019-05-20T17:17:10.940Z,84.57
2019-05-20T17:20:24.673Z,74.77
2019-05-20T17:23:38.285Z,81.43
2019-05-20T17:26:52.430Z,113.43
2019-05-20T17:30:06.446Z,83.27
2019-05-20T17:33:20.529Z,70.87
2019-05-20T17:36:34.546Z,58.50
2019-05-20T17:39:48.084Z,69.97
2019-05-20T17:43:01.840Z,56.03
2019-05-20T17:46:15.771Z,73.57
2019-05-20T17:49:31.420Z,77.80
2019-05-20T17:53:04.782Z,93.53
2019-05-20T17:56:18.872Z,135.73
2019-05-20T17:59:32.980Z,73.97
2019-05-20T18:02:46.997Z,64.50
2019-05-20T18:06:00.649Z,51.93
2019-05-20T18:09:14.799Z,93.67
2019-05-20T18:12:28.533Z,68.50
2019-05-20T18:15:42.570Z,55.27
2019-05-20T18:18:56.619Z,58.37
2019-05-20T18:22:10.268Z,70.00
2019-05-20T18:25:23.883Z,70.67
2019-05-20T18:28:37.965Z,74.27
2019-05-20T18:31:51.693Z,59.63
2019-05-20T18:35:05.833Z,129.50
2019-05-20T18:38:19.517Z,179.00
2019-05-20T18:41:33.130Z,123.47
2019-05-20T18:44:46.766Z,147.67
2019-05-20T18:48:00.726Z,69.10
2019-05-20T18:51:14.259Z,59.60
2019-05-20T18:54:27.766Z,58.47
2019-05-20T18:57:41.389Z,56.83
2019-05-20T19:00:54.904Z,149.70
2019-05-20T19:04:08.531Z,44.80
2019-05-20T19:07:22.257Z,70.33
2019-05-20T19:10:35.966Z,66.30
2019-05-20T19:13:49.700Z,47.13
2019-05-20T19:17:03.403Z,58.50
2019-05-20T19:20:17.140Z,44.83
2019-05-20T19:23:30.748Z,49.47
2019-05-20T19:26:44.323Z,46.60
2019-05-20T19:29:57.951Z,46.77
2019-05-20T19:33:11.776Z,44.63
2019-05-20T19:36:25.496Z,44.37
2019-05-20T19:39:39.036Z,44.63
2019-05-20T19:42:52.773Z,46.43
2019-05-20T19:46:06.501Z,48.00
2019-05-20T19:49:20.172Z,45.30
2019-05-20T19:52:34.439Z,46.43
2019-05-20T19:55:47.955Z,46.83
2019-05-20T19:59:01.682Z,50.97
2019-05-20T20:02:17.746Z,48.43
2019-05-20T20:05:30.924Z,49.97
2019-05-20T20:08:44.747Z,50.03
2019-05-20T20:11:58.361Z,50.40
2019-05-20T20:15:16.443Z,51.93
2019-05-20T20:18:29.965Z,49.63
2019-05-20T20:21:43.507Z,51.80
2019-05-20T20:24:57.277Z,48.80
2019-05-20T20:28:10.927Z,49.83
2019-05-20T20:31:24.821Z,53.30
2019-05-20T20:34:38.307Z,50.77
2019-05-20T20:37:51.919Z,55.67
2019-05-20T20:41:05.669Z,58.80
2019-05-20T20:44:19.225Z,55.40
2019-05-20T20:47:41.383Z,53.43
2019-05-20T20:50:48.378Z,55.20
2019-05-20T20:54:02.014Z,55.87
2019-05-20T20:57:15.709Z,56.53
2019-05-20T21:00:29.310Z,55.23
2019-05-20T21:03:43.106Z,56.37
2019-05-20T21:06:56.615Z,59.73
2019-05-20T21:10:10.430Z,54.80
2019-05-20T21:16:44.480Z,56.53
2019-05-20T21:19:58.170Z,51.77
2019-05-20T21:23:11.816Z,55.23
2019-05-20T21:26:25.302Z,56.03
2019-05-20T21:29:38.933Z,57.13
2019-05-20T21:33:07.610Z,55.97
2019-05-20T21:36:07.947Z,51.97
2019-05-20T21:39:21.603Z,54.30
2019-05-20T21:42:35.487Z,57.47
2019-05-20T21:45:48.978Z,51.37
2019-05-20T21:49:02.921Z,50.87
2019-05-20T21:52:16.442Z,56.10
2019-05-20T21:55:30.069Z,54.37
2019-05-20T21:58:43.564Z,50.30
2019-05-20T22:01:57.063Z,49.73
2019-05-20T22:05:11.197Z,50.03
2019-05-20T22:08:24.801Z,51.83
2019-05-20T22:11:38.318Z,51.97
2019-05-20T22:14:52.145Z,53.37
2019-05-20T22:18:05.744Z,49.03
2019-05-20T22:21:23.654Z,49.80
2019-05-20T22:24:37.528Z,50.43
2019-05-20T22:27:51.355Z,52.60
2019-05-20T22:31:04.841Z,51.77
2019-05-20T22:34:18.553Z,49.27
2019-05-20T22:37:32.457Z,51.67
2019-05-20T22:40:45.973Z,50.50
2019-05-20T22:44:00.096Z,48.63
2019-05-20T22:47:13.905Z,47.20
2019-05-20T22:50:27.745Z,50.07
2019-05-20T22:53:41.298Z,47.27
2019-05-20T22:56:55.181Z,46.33
2019-05-20T23:00:08.869Z,49.40
2019-05-20T23:03:23.115Z,50.77
2019-05-20T23:15:42.304Z,49.67
2019-05-20T23:18:55.815Z,47.97
2019-05-20T23:22:10.347Z,49.40
2019-05-20T23:25:23.831Z,45.77
2019-05-20T23:28:37.419Z,41.67
2019-05-20T23:31:50.914Z,42.80
2019-05-20T23:35:04.766Z,43.00
2019-05-20T23:38:18.282Z,42.13
2019-05-20T23:41:32.199Z,40.37
2019-05-20T23:44:45.698Z,45.27
2019-05-20T23:47:59.202Z,43.03
2019-05-20T23:51:13.229Z,42.67
2019-05-20T23:54:26.711Z,44.97
2019-05-20T23:57:40.318Z,37.00
